createdAt,value
2023-02-28T00:01:28.339Z,-4.70
2023-02-28T00:03:55.502Z,-4.80
2023-02-28T00:06:22.836Z,-4.80
2023-02-28T00:08:49.933Z,-4.90
2023-02-28T00:11:17.440Z,-4.90
2023-02-28T00:13:49.878Z,-4.90
2023-02-28T00:16:20.543Z,-4.90
2023-02-28T00:18:51.183Z,-5.00
2023-02-28T00:21:19.867Z,-4.90
2023-02-28T00:23:47.097Z,-4.90
2023-02-28T00:26:14.148Z,-4.90
2023-02-28T00:28:41.082Z,-4.90
2023-02-28T00:31:08.096Z,-4.90
2023-02-28T00:33:35.174Z,-4.90
2023-02-28T00:36:07.484Z,-4.80
2023-02-28T00:38:34.963Z,-4.80
2023-02-28T00:41:05.795Z,-4.80
2023-02-28T00:43:34.733Z,-4.80
2023-02-28T00:46:02.245Z,-4.80
2023-02-28T00:48:29.410Z,-4.90
2023-02-28T00:50:56.384Z,-4.90
2023-02-28T00:53:23.354Z,-4.90
2023-02-28T00:55:51.686Z,-5.00
2023-02-28T00:58:18.693Z,-5.00
2023-02-28T01:00:50.353Z,-5.00
2023-02-28T01:03:18.652Z,-5.10
2023-02-28T01:05:46.419Z,-5.10
2023-02-28T01:08:14.810Z,-5.10
2023-02-28T01:10:41.921Z,-5.00
2023-02-28T01:13:09.034Z,-5.00
2023-02-28T01:15:36.059Z,-4.80
2023-02-28T01:18:03.328Z,-4.90
2023-02-28T01:20:30.298Z,-4.90
2023-02-28T01:22:57.220Z,-4.90
2023-02-28T01:25:24.189Z,-4.90
2023-02-28T01:27:51.134Z,-5.00
2023-02-28T01:30:18.160Z,-5.00
2023-02-28T01:32:45.135Z,-5.10
2023-02-28T01:35:12.243Z,-5.10
2023-02-28T01:37:39.278Z,-5.10
2023-02-28T01:40:06.920Z,-5.10
2023-02-28T01:42:33.878Z,-5.20
2023-02-28T01:45:19.621Z,-5.10
2023-02-28T01:47:47.587Z,-5.00
2023-02-28T01:50:20.334Z,-4.90
2023-02-28T01:52:49.255Z,-4.80
2023-02-28T01:55:21.221Z,-4.90
2023-02-28T01:57:53.386Z,-5.00
2023-02-28T02:00:24.844Z,-5.00
2023-02-28T02:02:56.489Z,-4.90
2023-02-28T02:05:25.824Z,-4.90
2023-02-28T02:07:57.153Z,-4.80
2023-02-28T02:10:36.211Z,-4.80
2023-02-28T02:13:35.377Z,-4.80
2023-02-28T02:16:37.882Z,-4.90
2023-02-28T02:19:26.097Z,-5.00
2023-02-28T02:22:08.044Z,-5.00
2023-02-28T02:25:22.741Z,-5.00
2023-02-28T02:28:37.468Z,-5.00
2023-02-28T02:31:33.654Z,-5.00
2023-02-28T02:34:09.206Z,-4.90
2023-02-28T02:37:04.424Z,-4.30
2023-02-28T02:39:49.694Z,-4.00
2023-02-28T02:42:33.206Z,-3.80
2023-02-28T02:45:06.022Z,-3.60
2023-02-28T02:47:34.594Z,-3.50
2023-02-28T02:50:06.820Z,-3.30
2023-02-28T02:52:43.989Z,-3.20
2023-02-28T02:55:13.951Z,-3.20
2023-02-28T02:57:58.481Z,-3.10
2023-02-28T03:00:31.273Z,-3.20
2023-02-28T03:02:58.883Z,-3.20
2023-02-28T03:05:31.762Z,-3.10
2023-02-28T03:07:58.856Z,-3.00
2023-02-28T03:10:31.664Z,-2.90
2023-02-28T03:13:37.338Z,-2.90
2023-02-28T03:16:07.104Z,-2.90
2023-02-28T03:18:44.445Z,-2.90
2023-02-28T03:21:24.295Z,-2.90
2023-02-28T03:24:06.929Z,-2.80
2023-02-28T03:26:39.390Z,-2.70
2023-02-28T03:29:27.772Z,-2.70
2023-02-28T03:31:58.290Z,-2.70
2023-02-28T03:34:34.484Z,-2.80
2023-02-28T03:37:10.260Z,-2.80
2023-02-28T03:40:01.370Z,-2.70
2023-02-28T03:42:32.190Z,-2.80
2023-02-28T03:45:03.762Z,-2.90
2023-02-28T03:47:41.654Z,-3.00
2023-02-28T03:50:14.129Z,-3.00
2023-02-28T03:52:48.528Z,-3.10
2023-02-28T03:55:17.883Z,-3.20
2023-02-28T03:57:52.335Z,-3.20
2023-02-28T04:00:27.661Z,-3.20
2023-02-28T04:02:55.516Z,-3.40
2023-02-28T04:05:23.433Z,-3.40
2023-02-28T04:07:50.508Z,-3.50
2023-02-28T04:10:17.920Z,-3.50
2023-02-28T04:12:44.966Z,-3.50
2023-02-28T04:15:12.416Z,-3.60
2023-02-28T04:17:39.717Z,-3.70
2023-02-28T04:20:10.641Z,-3.70
2023-02-28T04:22:38.560Z,-3.70
2023-02-28T04:25:06.845Z,-3.70
2023-02-28T04:27:33.986Z,-3.70
2023-02-28T04:30:01.161Z,-3.60
2023-02-28T04:32:28.170Z,-3.70
2023-02-28T04:34:55.126Z,-3.70
2023-02-28T04:37:22.310Z,-3.70
2023-02-28T04:39:49.235Z,-3.60
2023-02-28T04:42:16.452Z,-3.60
2023-02-28T04:44:43.381Z,-3.50
2023-02-28T04:47:10.800Z,-3.60
2023-02-28T04:49:37.793Z,-3.60
2023-02-28T04:52:04.893Z,-3.50
2023-02-28T04:54:31.836Z,-3.50
2023-02-28T04:56:58.765Z,-3.50
2023-02-28T04:59:25.759Z,-3.50
2023-02-28T05:01:52.782Z,-3.60
2023-02-28T05:04:19.851Z,-3.60
2023-02-28T05:06:46.811Z,-3.60
2023-02-28T05:09:13.842Z,-3.60
2023-02-28T05:11:41.794Z,-3.60
2023-02-28T05:14:13.063Z,-3.50
2023-02-28T05:16:40.523Z,-3.60
2023-02-28T05:19:07.541Z,-3.60
2023-02-28T05:21:43.112Z,-3.60
2023-02-28T05:24:13.605Z,-3.60
2023-02-28T05:26:42.924Z,-3.60
2023-02-28T05:29:10.871Z,-3.50
2023-02-28T05:31:38.062Z,-3.40
2023-02-28T05:34:05.399Z,-3.50
2023-02-28T05:36:33.188Z,-3.40
2023-02-28T05:39:00.308Z,-3.30
2023-02-28T05:41:27.732Z,-3.20
2023-02-28T05:43:54.959Z,-3.20
2023-02-28T05:46:22.183Z,-3.30
2023-02-28T05:48:50.150Z,-3.20
2023-02-28T05:51:18.152Z,-3.30
2023-02-28T05:53:45.473Z,-3.20
2023-02-28T05:56:12.430Z,-3.10
2023-02-28T05:58:39.368Z,-3.10
2023-02-28T06:01:26.028Z,-3.10
2023-02-28T06:03:53.176Z,-3.00
2023-02-28T06:06:20.231Z,-2.90
2023-02-28T06:08:47.423Z,-2.90
2023-02-28T06:11:14.693Z,-2.80
2023-02-28T06:13:41.958Z,-2.80
2023-02-28T06:16:11.560Z,-2.80
2023-02-28T06:18:38.802Z,-2.80
2023-02-28T06:21:06.269Z,-2.70
2023-02-28T06:23:33.296Z,-2.80
2023-02-28T06:26:00.264Z,-2.70
2023-02-28T06:28:27.243Z,-2.70
2023-02-28T06:30:54.209Z,-2.60
2023-02-28T06:33:21.505Z,-2.50
2023-02-28T06:35:51.621Z,-2.40
2023-02-28T06:38:19.285Z,-2.30
2023-02-28T06:40:53.656Z,-2.30
2023-02-28T06:43:20.762Z,-2.30
2023-02-28T06:45:47.788Z,-2.30
2023-02-28T06:48:14.787Z,-2.20
2023-02-28T06:50:42.082Z,-2.20
2023-02-28T06:53:09.107Z,-2.30
2023-02-28T06:55:38.450Z,-2.20
2023-02-28T06:58:15.748Z,-2.20
2023-02-28T07:00:43.540Z,-2.10
2023-02-28T07:03:10.842Z,-2.10
2023-02-28T07:05:38.734Z,-2.10
2023-02-28T07:08:07.045Z,-2.10
2023-02-28T07:10:34.456Z,-2.10
2023-02-28T07:13:02.016Z,-2.10
2023-02-28T07:15:29.271Z,-2.00
2023-02-28T07:17:57.430Z,-1.90
2023-02-28T07:20:25.350Z,-1.80
2023-02-28T07:22:57.443Z,-1.80
2023-02-28T07:25:26.655Z,-1.60
2023-02-28T07:27:54.635Z,-1.50
2023-02-28T07:30:21.940Z,-1.40
2023-02-28T07:32:49.196Z,-1.30
2023-02-28T07:35:19.618Z,-1.20
2023-02-28T07:37:48.161Z,-1.10
2023-02-28T07:40:15.468Z,-0.90
2023-02-28T07:42:43.188Z,-0.80
2023-02-28T07:45:12.765Z,-0.70
2023-02-28T07:47:40.271Z,-0.60
2023-02-28T07:50:09.386Z,-0.50
2023-02-28T07:52:37.936Z,-0.40
2023-02-28T07:55:06.413Z,-0.30
2023-02-28T07:57:36.635Z,-0.20
2023-02-28T08:00:10.393Z,-0.10
2023-02-28T08:02:37.697Z,-0.10
2023-02-28T08:05:05.053Z,0.00
2023-02-28T08:07:32.307Z,-0.10
2023-02-28T08:09:59.279Z,-0.10
2023-02-28T08:12:26.808Z,0.00
2023-02-28T08:14:53.720Z,0.00
2023-02-28T08:17:20.709Z,0.00
2023-02-28T08:19:48.226Z,0.20
2023-02-28T08:22:15.269Z,0.20
2023-02-28T08:24:43.906Z,0.30
2023-02-28T08:27:11.277Z,0.30
2023-02-28T08:29:39.426Z,0.50
2023-02-28T08:32:14.711Z,0.40
2023-02-28T08:34:45.809Z,0.50
2023-02-28T08:37:14.001Z,0.60
2023-02-28T08:39:41.151Z,0.60
2023-02-28T08:42:08.328Z,0.50
2023-02-28T08:44:35.492Z,0.60
2023-02-28T08:47:02.477Z,0.60
2023-02-28T08:49:29.785Z,0.70
2023-02-28T08:51:58.237Z,0.80
2023-02-28T08:54:25.947Z,0.90
2023-02-28T08:56:52.995Z,1.00
2023-02-28T08:59:20.079Z,1.10
2023-02-28T09:01:47.031Z,1.20
2023-02-28T09:04:17.099Z,1.30
2023-02-28T09:06:46.793Z,1.60
2023-02-28T09:09:13.719Z,1.60
2023-02-28T09:11:40.666Z,1.80
2023-02-28T09:14:07.624Z,1.80
2023-02-28T09:16:35.819Z,1.80
2023-02-28T09:19:03.323Z,1.90
2023-02-28T09:21:30.613Z,1.80
2023-02-28T09:23:57.767Z,2.00
2023-02-28T09:26:30.232Z,2.00
2023-02-28T09:29:03.631Z,2.10
2023-02-28T09:31:30.595Z,2.20
2023-02-28T09:33:58.574Z,2.30
2023-02-28T09:36:34.553Z,2.40
2023-02-28T09:39:08.687Z,2.40
2023-02-28T09:41:48.532Z,2.60
2023-02-28T09:44:34.551Z,2.70
2023-02-28T09:47:42.528Z,2.70
2023-02-28T09:50:27.910Z,2.70
2023-02-28T09:52:56.533Z,2.80
2023-02-28T09:55:47.154Z,3.00
2023-02-28T09:58:43.061Z,3.00
2023-02-28T10:01:28.968Z,2.90
2023-02-28T10:04:04.654Z,3.10
2023-02-28T10:06:40.565Z,3.00
2023-02-28T10:09:24.673Z,3.00
2023-02-28T10:11:59.122Z,3.00
2023-02-28T10:14:27.775Z,3.10
2023-02-28T10:17:03.049Z,3.10
2023-02-28T10:19:57.230Z,3.00
2023-02-28T10:22:41.709Z,3.00
2023-02-28T10:25:29.738Z,3.20
2023-02-28T10:28:16.649Z,3.40
2023-02-28T10:30:46.601Z,3.40
2023-02-28T10:33:24.692Z,3.40
2023-02-28T10:35:53.397Z,3.40
2023-02-28T10:38:29.698Z,3.50
2023-02-28T10:41:09.934Z,3.50
2023-02-28T10:43:39.356Z,3.50
2023-02-28T10:46:12.247Z,3.50
2023-02-28T10:48:39.243Z,3.60
2023-02-28T10:51:09.686Z,3.50
2023-02-28T10:54:00.064Z,3.60
2023-02-28T10:56:28.557Z,3.70
2023-02-28T10:58:58.346Z,3.70
2023-02-28T11:01:35.873Z,4.00
2023-02-28T11:04:04.001Z,3.90
2023-02-28T11:06:33.552Z,3.90
2023-02-28T11:09:19.181Z,4.00
2023-02-28T11:11:49.808Z,4.00
2023-02-28T11:14:27.505Z,4.00
2023-02-28T11:16:55.851Z,4.20
2023-02-28T11:19:39.214Z,4.30
2023-02-28T11:22:06.676Z,4.30
2023-02-28T11:28:07.698Z,4.20
2023-02-28T11:30:43.201Z,4.00
2023-02-28T11:33:41.763Z,4.10
2023-02-28T11:36:20.954Z,4.10
2023-02-28T11:38:50.676Z,4.10
2023-02-28T11:41:40.904Z,4.10
2023-02-28T11:44:37.531Z,4.20
2023-02-28T11:47:36.667Z,4.20
2023-02-28T11:50:39.479Z,4.20
2023-02-28T11:53:27.412Z,4.20
2023-02-28T11:56:06.928Z,4.20
2023-02-28T11:58:51.849Z,4.20
2023-02-28T12:01:33.336Z,4.30
2023-02-28T12:04:27.027Z,4.40
2023-02-28T12:07:45.516Z,4.40
2023-02-28T12:10:30.406Z,4.40
2023-02-28T12:13:05.895Z,4.40
2023-02-28T12:16:03.836Z,4.30
2023-02-28T12:18:54.824Z,4.30
2023-02-28T12:21:24.812Z,4.30
2023-02-28T12:24:12.926Z,4.30
2023-02-28T12:26:41.188Z,4.40
2023-02-28T12:29:43.738Z,4.50
2023-02-28T12:35:51.481Z,4.30
2023-02-28T12:38:26.885Z,4.40
2023-02-28T12:41:30.880Z,4.50
2023-02-28T12:44:07.025Z,4.40
2023-02-28T12:46:38.138Z,4.40
2023-02-28T12:49:17.143Z,4.50
2023-02-28T12:51:46.075Z,4.60
2023-02-28T12:54:41.549Z,4.60
2023-02-28T12:57:17.202Z,4.50
2023-02-28T12:59:48.570Z,4.40
2023-02-28T13:02:33.824Z,4.50
2023-02-28T13:05:16.103Z,4.70
2023-02-28T13:07:55.024Z,4.60
2023-02-28T13:10:22.120Z,4.60
2023-02-28T13:12:54.832Z,4.70
2023-02-28T13:15:29.599Z,4.70
2023-02-28T13:17:59.052Z,4.70
2023-02-28T13:20:37.102Z,4.70
2023-02-28T13:23:06.572Z,4.70
2023-02-28T13:25:42.439Z,4.70
2023-02-28T13:28:15.542Z,4.80
2023-02-28T13:30:56.763Z,4.80
2023-02-28T13:33:34.045Z,4.80
2023-02-28T13:36:17.132Z,4.80
2023-02-28T13:38:50.922Z,4.70
2023-02-28T13:41:30.653Z,4.70
2023-02-28T13:44:11.508Z,4.70
2023-02-28T13:46:50.389Z,4.70
2023-02-28T13:49:35.000Z,4.70
2023-02-28T13:52:08.389Z,4.70
2023-02-28T13:54:41.388Z,4.70
2023-02-28T13:57:22.244Z,4.60
2023-02-28T14:00:03.207Z,4.60
2023-02-28T14:03:03.829Z,4.60
2023-02-28T14:05:33.621Z,4.50
2023-02-28T14:08:14.756Z,4.50
2023-02-28T14:10:46.805Z,4.60
2023-02-28T14:13:28.837Z,4.50
2023-02-28T14:16:03.440Z,4.40
2023-02-28T14:18:36.580Z,4.50
2023-02-28T14:21:15.420Z,4.50
2023-02-28T14:23:58.000Z,4.50
2023-02-28T14:27:04.838Z,4.40
2023-02-28T14:29:43.479Z,4.40
2023-02-28T14:32:42.612Z,4.40
2023-02-28T14:35:21.684Z,4.30
2023-02-28T14:37:49.803Z,4.20
2023-02-28T14:40:22.452Z,4.20
2023-02-28T14:42:59.189Z,4.10
2023-02-28T14:45:28.116Z,4.20
2023-02-28T14:47:55.078Z,4.10
2023-02-28T14:50:33.806Z,4.20
2023-02-28T14:53:00.965Z,4.20
2023-02-28T14:55:36.497Z,4.10
2023-02-28T14:58:07.635Z,4.20
2023-02-28T15:00:38.675Z,4.20
2023-02-28T15:03:23.331Z,4.20
2023-02-28T15:05:54.917Z,4.10
2023-02-28T15:08:22.157Z,4.10
2023-02-28T15:10:56.964Z,4.10
2023-02-28T15:13:27.092Z,4.10
2023-02-28T15:16:04.416Z,4.00
2023-02-28T15:18:52.024Z,3.90
2023-02-28T15:21:39.434Z,3.90
2023-02-28T15:24:14.279Z,3.70
2023-02-28T15:26:44.511Z,3.70
2023-02-28T15:29:18.945Z,3.50
2023-02-28T15:32:05.587Z,3.50
2023-02-28T15:34:45.211Z,3.40
2023-02-28T15:37:34.217Z,3.30
2023-02-28T15:40:16.103Z,3.20
2023-02-28T15:42:45.120Z,3.10
2023-02-28T15:45:39.618Z,3.00
2023-02-28T15:48:16.955Z,2.90
2023-02-28T15:50:44.762Z,2.60
2023-02-28T15:53:18.525Z,2.70
2023-02-28T15:55:45.713Z,2.50
2023-02-28T15:58:14.291Z,2.40
2023-02-28T16:00:46.678Z,2.30
2023-02-28T16:03:49.036Z,2.50
2023-02-28T16:06:43.755Z,2.40
2023-02-28T16:09:14.389Z,2.30
2023-02-28T16:11:50.622Z,2.20
2023-02-28T16:14:28.028Z,2.20
2023-02-28T16:16:58.054Z,2.10
2023-02-28T16:19:25.109Z,1.90
2023-02-28T16:21:52.356Z,1.90
2023-02-28T16:24:19.252Z,1.80
2023-02-28T16:26:52.634Z,1.80
2023-02-28T16:29:36.550Z,1.70
2023-02-28T16:32:06.819Z,1.50
2023-02-28T16:34:33.928Z,1.40
2023-02-28T16:37:00.975Z,1.40
2023-02-28T16:39:27.938Z,1.30
2023-02-28T16:41:54.868Z,1.20
2023-02-28T16:44:34.485Z,1.10
2023-02-28T16:47:02.471Z,1.00
2023-02-28T16:49:29.442Z,1.00
2023-02-28T16:51:56.424Z,0.90
2023-02-28T16:54:23.473Z,0.90
2023-02-28T16:56:50.967Z,0.80
2023-02-28T16:59:23.374Z,0.70
2023-02-28T17:01:50.944Z,0.60
2023-02-28T17:04:18.107Z,1.00
2023-02-28T17:06:45.301Z,1.00
2023-02-28T17:09:22.924Z,1.40
2023-02-28T17:11:51.462Z,1.30
2023-02-28T17:14:18.579Z,1.60
2023-02-28T17:16:45.555Z,1.70
2023-02-28T17:19:14.912Z,1.70
2023-02-28T17:21:43.298Z,1.70
2023-02-28T17:24:33.048Z,1.80
2023-02-28T17:27:02.212Z,1.80
2023-02-28T17:29:29.359Z,1.70
2023-02-28T17:31:58.945Z,1.70
2023-02-28T17:34:27.672Z,1.60
2023-02-28T17:36:54.573Z,1.70
2023-02-28T17:39:25.319Z,1.70
2023-02-28T17:41:56.372Z,1.50
2023-02-28T17:44:24.950Z,1.50
2023-02-28T17:46:52.629Z,1.50
2023-02-28T17:49:20.468Z,1.50
2023-02-28T17:51:47.646Z,1.80
2023-02-28T17:54:15.187Z,1.70
2023-02-28T17:56:44.123Z,1.60
2023-02-28T17:59:12.708Z,1.60
2023-02-28T18:01:39.984Z,1.40
2023-02-28T18:04:07.033Z,1.30
2023-02-28T18:06:47.421Z,1.50
2023-02-28T18:09:16.352Z,1.40
2023-02-28T18:11:44.844Z,1.20
2023-02-28T18:14:12.316Z,1.30
2023-02-28T18:16:39.373Z,1.20
2023-02-28T18:19:07.220Z,1.40
2023-02-28T18:21:34.235Z,1.50
2023-02-28T18:24:01.132Z,1.40
2023-02-28T18:26:28.563Z,1.50
2023-02-28T18:28:56.296Z,1.30
2023-02-28T18:31:23.341Z,1.40
2023-02-28T18:33:52.387Z,1.40
2023-02-28T18:36:21.520Z,1.50
2023-02-28T18:38:50.554Z,1.50
2023-02-28T18:41:20.864Z,1.50
2023-02-28T18:43:48.657Z,1.50
2023-02-28T18:46:18.231Z,1.50
2023-02-28T18:48:45.683Z,1.50
2023-02-28T18:51:18.414Z,1.50
2023-02-28T18:53:46.219Z,1.50
2023-02-28T18:56:16.130Z,1.50
2023-02-28T18:58:43.485Z,1.50
2023-02-28T19:01:21.816Z,1.40
2023-02-28T19:03:50.091Z,1.40
2023-02-28T19:06:18.211Z,1.40
2023-02-28T19:08:45.339Z,1.40
2023-02-28T19:11:18.258Z,1.30
2023-02-28T19:13:46.569Z,1.20
2023-02-28T19:16:15.523Z,1.30
2023-02-28T19:18:42.623Z,1.20
2023-02-28T19:21:11.449Z,1.20
2023-02-28T19:23:39.472Z,1.20
2023-02-28T19:26:08.401Z,1.20
2023-02-28T19:28:36.000Z,1.20
2023-02-28T19:31:03.365Z,1.10
2023-02-28T19:33:30.586Z,1.10
2023-02-28T19:36:01.546Z,1.10
2023-02-28T19:38:28.698Z,1.10
2023-02-28T19:41:03.754Z,1.10
2023-02-28T19:43:30.901Z,1.10
2023-02-28T19:45:57.893Z,1.10
2023-02-28T19:48:26.282Z,1.10
2023-02-28T19:51:09.540Z,1.10
2023-02-28T19:53:38.216Z,1.10
2023-02-28T19:59:52.960Z,1.10
2023-02-28T20:02:22.269Z,1.10
2023-02-28T20:04:50.704Z,1.10
2023-02-28T20:07:21.847Z,1.10
2023-02-28T20:09:49.607Z,1.10
2023-02-28T20:12:25.187Z,1.10
2023-02-28T20:14:53.315Z,1.10
2023-02-28T20:17:20.273Z,1.10
2023-02-28T20:19:47.481Z,1.10
2023-02-28T20:22:14.631Z,1.10
2023-02-28T20:24:41.581Z,1.10
2023-02-28T20:27:08.735Z,1.00
2023-02-28T20:29:36.282Z,1.00
2023-02-28T20:32:03.271Z,1.00
2023-02-28T20:34:30.274Z,0.90
2023-02-28T20:36:58.791Z,1.00
2023-02-28T20:39:26.097Z,1.00
2023-02-28T20:41:53.014Z,0.90
2023-02-28T20:44:19.957Z,1.00
2023-02-28T20:46:46.867Z,0.90
2023-02-28T20:49:15.827Z,0.90
2023-02-28T20:51:42.936Z,0.80
2023-02-28T20:54:14.095Z,0.80
2023-02-28T20:56:40.958Z,0.80
2023-02-28T20:59:10.453Z,0.70
2023-02-28T21:01:37.581Z,0.80
2023-02-28T21:04:06.471Z,0.70
2023-02-28T21:06:40.003Z,0.70
2023-02-28T21:09:08.984Z,0.70
2023-02-28T21:15:22.912Z,0.70
2023-02-28T21:17:50.219Z,0.70
2023-02-28T21:23:58.281Z,0.80
2023-02-28T21:26:25.598Z,0.80
2023-02-28T21:28:55.443Z,0.80
2023-02-28T21:31:24.818Z,0.70
2023-02-28T21:33:54.588Z,0.70
2023-02-28T21:36:24.708Z,0.70
2023-02-28T21:38:57.499Z,0.80
2023-02-28T21:41:25.581Z,0.80
2023-02-28T21:43:53.514Z,0.80
2023-02-28T21:46:24.419Z,0.70
2023-02-28T21:48:52.079Z,0.80
2023-02-28T21:51:24.888Z,0.70
2023-02-28T21:53:51.931Z,0.70
2023-02-28T21:56:21.697Z,0.70
2023-02-28T21:58:49.473Z,0.70
2023-02-28T22:01:21.390Z,0.80
2023-02-28T22:03:49.518Z,0.80
2023-02-28T22:06:22.311Z,0.80
2023-02-28T22:08:52.496Z,0.70
2023-02-28T22:11:20.455Z,0.80
2023-02-28T22:13:48.815Z,0.80
2023-02-28T22:16:17.976Z,0.90
2023-02-28T22:18:45.290Z,0.90
2023-02-28T22:21:13.763Z,0.90
2023-02-28T22:23:42.697Z,0.90
2023-02-28T22:26:12.295Z,0.80
2023-02-28T22:28:39.712Z,0.80
2023-02-28T22:31:20.651Z,0.80
2023-02-28T22:33:49.247Z,0.80
2023-02-28T22:36:18.455Z,0.70
2023-02-28T22:38:46.899Z,0.80
2023-02-28T22:41:14.434Z,0.70
2023-02-28T22:43:42.522Z,0.70
2023-02-28T22:46:11.607Z,0.70
2023-02-28T22:48:39.607Z,0.80
2023-02-28T22:51:12.645Z,0.80
2023-02-28T22:53:39.892Z,0.90
2023-02-28T22:56:08.634Z,0.90
2023-02-28T22:58:36.040Z,0.90
2023-02-28T23:01:11.481Z,0.90
2023-02-28T23:03:39.372Z,0.90
2023-02-28T23:06:24.397Z,0.90
2023-02-28T23:08:53.163Z,0.90
2023-02-28T23:11:24.591Z,0.90
2023-02-28T23:14:01.066Z,0.90
2023-02-28T23:16:32.984Z,0.90
2023-02-28T23:19:02.497Z,1.00
2023-02-28T23:21:30.113Z,1.00
2023-02-28T23:23:57.142Z,1.00
2023-02-28T23:26:24.823Z,1.00
2023-02-28T23:28:51.868Z,1.10
2023-02-28T23:31:18.816Z,1.10
2023-02-28T23:33:45.735Z,1.10
2023-02-28T23:36:15.112Z,1.20
2023-02-28T23:38:45.750Z,1.20
2023-02-28T23:41:14.131Z,1.20
2023-02-28T23:43:41.068Z,1.30
2023-02-28T23:46:09.748Z,1.40
2023-02-28T23:48:36.946Z,1.40
2023-02-28T23:51:09.300Z,1.40
2023-02-28T23:53:38.683Z,1.50
2023-02-28T23:56:08.030Z,1.60
2023-02-28T23:58:35.158Z,1.60
